Time;durP1;ratioP1;P1;durP2;ratioP2;P2;SDS_P1;SDS_P2;PMS_P1;PMS_P2;Temp;Humidity;BMP_temperature;BMP_pressure;BME280_temperature;BME280_humidity;BME280_pressure;Samples;Min_cycle;Max_cycle;Signal;HPM_P1;HPM_P2
2023/07/03 00:01:07;;;;;;;20.40;5.68;;;16.90;99.90;;;;;;4952405;28;20502;-49
2023/07/03 00:03:33;;;;;;;21.13;6.05;;;16.90;99.90;;;;;;4935371;28;20043;-49
2023/07/03 00:06:01;;;;;;;19.00;6.20;;;16.80;99.90;;;;;;4952908;28;20435;-50
2023/07/03 00:08:26;;;;;;;20.45;6.07;;;16.80;99.90;;;;;;4952722;28;20495;-49
2023/07/03 00:11:03;;;;;;;19.20;6.35;;;16.80;99.90;;;;;;4952910;28;20041;-48
2023/07/03 00:13:29;;;;;;;19.15;6.72;;;16.70;99.90;;;;;;4935142;28;20487;-52
2023/07/03 00:15:59;;;;;;;19.85;5.57;;;16.70;99.90;;;;;;4935572;28;20083;-51
2023/07/03 00:18:25;;;;;;;22.73;6.18;;;16.70;99.90;;;;;;4952876;28;20103;-51
2023/07/03 00:20:54;;;;;;;20.50;6.22;;;16.70;99.90;;;;;;4952784;28;20368;-52
2023/07/03 00:23:24;;;;;;;21.67;6.43;;;16.60;99.90;;;;;;4954263;28;20129;-50
2023/07/03 00:25:51;;;;;;;19.63;6.15;;;16.70;99.90;;;;;;4956376;28;20070;-52
2023/07/03 00:28:17;;;;;;;17.95;5.97;;;16.70;99.90;;;;;;4956144;28;20051;-50
2023/07/03 00:30:43;;;;;;;20.48;5.75;;;16.60;99.90;;;;;;4956401;28;20054;-46
2023/07/03 00:33:10;;;;;;;19.10;5.60;;;16.60;99.90;;;;;;4956063;28;20130;-48
2023/07/03 00:35:36;;;;;;;18.95;6.20;;;16.70;99.90;;;;;;4956281;28;20378;-49
2023/07/03 00:38:02;;;;;;;21.00;5.75;;;16.70;99.90;;;;;;4955909;28;20035;-53
2023/07/03 00:40:28;;;;;;;18.92;6.22;;;16.70;99.90;;;;;;4956015;28;20050;-51
2023/07/03 00:42:55;;;;;;;23.13;6.85;;;16.70;99.90;;;;;;4956231;28;20099;-49
2023/07/03 00:45:21;;;;;;;22.58;6.55;;;16.60;99.90;;;;;;4956163;28;20046;-51
2023/07/03 00:47:48;;;;;;;24.13;6.07;;;16.70;99.90;;;;;;4956073;28;20039;-50
2023/07/03 00:50:13;;;;;;;21.85;6.25;;;16.60;99.90;;;;;;4956086;28;20039;-52
2023/07/03 00:52:41;;;;;;;21.38;6.22;;;16.70;99.90;;;;;;4955764;28;20498;-49
2023/07/03 00:55:10;;;;;;;21.38;5.65;;;16.70;99.90;;;;;;4955826;28;20554;-52
2023/07/03 00:57:36;;;;;;;25.67;5.95;;;16.70;99.90;;;;;;4955559;28;20046;-49
2023/07/03 01:00:04;;;;;;;25.33;6.05;;;16.70;99.90;;;;;;4955501;28;20134;-49
2023/07/03 01:02:48;;;;;;;21.75;5.63;;;16.70;99.90;;;;;;4955803;28;20050;-47
2023/07/03 01:05:30;;;;;;;21.38;5.53;;;16.70;99.90;;;;;;4955355;28;20114;-50
2023/07/03 01:07:57;;;;;;;20.90;5.97;;;16.70;99.90;;;;;;4955438;28;20041;-48
2023/07/03 01:10:24;;;;;;;23.52;6.18;;;16.60;99.90;;;;;;4938003;28;20058;-50
2023/07/03 01:12:56;;;;;;;22.83;6.38;;;16.60;99.90;;;;;;4954475;28;20046;-50
2023/07/03 01:15:27;;;;;;;21.45;5.60;;;16.60;99.90;;;;;;4955134;28;20027;-50
2023/07/03 01:17:55;;;;;;;22.17;5.72;;;16.60;99.90;;;;;;4955041;28;20427;-51
2023/07/03 01:20:23;;;;;;;21.52;5.72;;;16.60;99.90;;;;;;4937857;28;20042;-52
2023/07/03 01:23:07;;;;;;;20.17;5.65;;;16.70;99.90;;;;;;4955576;28;20065;-50
2023/07/03 01:25:36;;;;;;;21.13;6.20;;;16.60;99.90;;;;;;4954301;28;20046;-48
2023/07/03 01:28:05;;;;;;;23.77;5.85;;;16.60;99.90;;;;;;4955015;28;20463;-50
2023/07/03 01:30:32;;;;;;;24.48;6.75;;;16.60;99.90;;;;;;4955448;28;20049;-49
2023/07/03 01:33:01;;;;;;;22.65;6.10;;;16.60;99.90;;;;;;4955280;28;20054;-49
2023/07/03 01:35:27;;;;;;;29.90;7.25;;;16.60;99.90;;;;;;4954240;28;20043;-49
2023/07/03 01:37:55;;;;;;;28.63;6.82;;;16.60;99.90;;;;;;4955239;28;20483;-51
2023/07/03 01:40:23;;;;;;;23.38;6.63;;;16.60;99.90;;;;;;4954940;28;20070;-50
2023/07/03 01:42:50;;;;;;;26.05;7.55;;;16.60;99.90;;;;;;4954770;28;20395;-50
2023/07/03 01:45:16;;;;;;;23.45;6.15;;;16.60;99.90;;;;;;4955160;28;20047;-47
2023/07/03 01:47:42;;;;;;;26.08;6.60;;;16.60;99.90;;;;;;4955020;28;20062;-49
2023/07/03 01:50:13;;;;;;;22.52;6.40;;;16.60;99.90;;;;;;4955093;28;20376;-52
2023/07/03 01:52:41;;;;;;;24.70;6.32;;;16.60;99.90;;;;;;4955092;28;20372;-49
2023/07/03 01:55:23;;;;;;;27.95;5.80;;;16.60;99.90;;;;;;4954724;28;20387;-51
2023/07/03 01:57:58;;;;;;;24.50;5.97;;;16.50;99.90;;;;;;4954282;28;20047;-50
2023/07/03 02:00:49;;;;;;;21.90;4.53;;;16.50;99.90;;;;;;4954293;28;20062;-48
2023/07/03 02:03:23;;;;;;;25.55;6.22;;;16.50;99.90;;;;;;4945983;28;20051;-47
2023/07/03 02:05:50;;;;;;;20.87;5.80;;;16.50;99.90;;;;;;4954652;28;20126;-47
2023/07/03 02:08:17;;;;;;;24.50;6.22;;;16.50;99.90;;;;;;4954710;28;20118;-50
2023/07/03 02:10:43;;;;;;;25.48;6.35;;;16.50;99.90;;;;;;4954093;28;20103;-52
2023/07/03 02:13:09;;;;;;;23.67;6.38;;;16.60;99.90;;;;;;4937100;28;20125;-51
2023/07/03 02:15:35;;;;;;;26.25;6.65;;;16.50;99.90;;;;;;4937111;28;20054;-50
2023/07/03 02:18:02;;;;;;;24.98;6.95;;;16.60;99.90;;;;;;4954271;28;20043;-49
2023/07/03 02:20:28;;;;;;;23.55;6.72;;;16.50;99.90;;;;;;4954617;28;20475;-50
2023/07/03 02:22:56;;;;;;;23.38;6.57;;;16.50;99.90;;;;;;4954416;28;20062;-49
2023/07/03 02:25:21;;;;;;;25.65;6.28;;;16.50;99.90;;;;;;4954359;28;20043;-48
2023/07/03 02:27:50;;;;;;;24.17;6.45;;;16.40;99.90;;;;;;4953901;28;20039;-51
2023/07/03 02:30:16;;;;;;;23.13;7.13;;;16.40;99.90;;;;;;4954173;28;20046;-51
2023/07/03 02:32:42;;;;;;;27.60;6.88;;;16.40;99.90;;;;;;4954046;28;20047;-49
2023/07/03 02:35:09;;;;;;;24.58;6.32;;;16.40;99.90;;;;;;4936550;28;20126;-50
2023/07/03 02:37:36;;;;;;;28.90;6.80;;;16.40;99.90;;;;;;4954089;28;20091;-51
2023/07/03 02:40:01;;;;;;;22.85;6.80;;;16.30;99.90;;;;;;4954029;28;20039;-48
2023/07/03 02:42:27;;;;;;;22.27;6.10;;;16.40;99.90;;;;;;4953920;28;20039;-50
2023/07/03 02:44:53;;;;;;;22.67;5.95;;;16.40;99.90;;;;;;4953952;28;20031;-48
2023/07/03 02:47:18;;;;;;;23.27;6.22;;;16.40;99.90;;;;;;4953703;28;20047;-51
2023/07/03 02:49:44;;;;;;;22.80;6.05;;;16.30;99.90;;;;;;4953864;28;20091;-52
2023/07/03 02:52:10;;;;;;;23.63;6.35;;;16.30;99.90;;;;;;4936529;28;20071;-47
2023/07/03 02:54:35;;;;;;;20.83;6.15;;;16.30;99.90;;;;;;4953878;28;20039;-49
2023/07/03 02:57:01;;;;;;;17.13;4.63;;;16.30;99.90;;;;;;4936385;28;20037;-48
2023/07/03 02:59:29;;;;;;;11.00;3.17;;;16.30;99.90;;;;;;4952964;28;20054;-50
2023/07/03 03:01:55;;;;;;;10.20;2.90;;;16.30;99.90;;;;;;4953552;28;20055;-52
2023/07/03 03:04:21;;;;;;;12.15;2.90;;;16.30;99.90;;;;;;4953266;28;20483;-49
2023/07/03 03:06:46;;;;;;;11.73;2.58;;;16.30;99.90;;;;;;4936122;28;20391;-52
2023/07/03 03:09:12;;;;;;;8.48;2.45;;;16.30;99.90;;;;;;4953370;28;20083;-50
2023/07/03 03:11:37;;;;;;;11.23;2.58;;;16.30;99.90;;;;;;4953427;28;20043;-47
2023/07/03 03:14:03;;;;;;;9.95;2.50;;;16.30;99.90;;;;;;4953360;28;20074;-50
2023/07/03 03:16:29;;;;;;;8.10;2.38;;;16.40;99.90;;;;;;4953537;28;20387;-49
2023/07/03 03:18:55;;;;;;;7.75;2.25;;;16.30;99.90;;;;;;4953288;28;20031;-49
2023/07/03 03:21:20;;;;;;;8.32;2.47;;;16.30;99.90;;;;;;4952655;28;20046;-50
2023/07/03 03:23:46;;;;;;;10.35;2.20;;;16.30;99.90;;;;;;4953234;28;20380;-51
2023/07/03 03:26:12;;;;;;;9.57;2.53;;;16.30;99.90;;;;;;4953326;28;20035;-51
2023/07/03 03:28:38;;;;;;;11.40;2.47;;;16.30;99.90;;;;;;4952905;28;20043;-50
2023/07/03 03:31:04;;;;;;;14.32;2.53;;;16.30;99.90;;;;;;4953174;28;20079;-47
2023/07/03 03:33:30;;;;;;;9.68;2.40;;;16.20;99.90;;;;;;4952988;28;20468;-51
2023/07/03 03:35:56;;;;;;;8.90;2.15;;;16.20;99.90;;;;;;4952926;28;20046;-46
2023/07/03 03:38:21;;;;;;;9.60;2.13;;;16.20;99.90;;;;;;4953095;28;20052;-51
2023/07/03 03:40:55;;;;;;;6.57;1.73;;;16.10;99.90;;;;;;4952486;28;20042;-50
2023/07/03 03:43:22;;;;;;;;;;;16.10;99.90;;;;;;4953418;28;20555;-50
2023/07/03 03:45:59;;;;;;;7.03;1.85;;;16.00;99.90;;;;;;4952657;28;19918;-52
2023/07/03 03:48:25;;;;;;;8.60;2.30;;;16.00;99.90;;;;;;4952757;28;20054;-49
2023/07/03 03:50:51;;;;;;;11.32;2.05;;;15.90;99.90;;;;;;4952763;28;20081;-51
2023/07/03 03:53:17;;;;;;;10.90;2.00;;;15.90;99.90;;;;;;4953234;28;20046;-51
2023/07/03 03:55:43;;;;;;;10.93;2.45;;;15.90;99.90;;;;;;4953030;28;20546;-50
2023/07/03 03:58:10;;;;;;;10.35;2.20;;;15.80;99.90;;;;;;4938666;28;20371;-50
2023/07/03 04:00:36;;;;;;;8.75;2.10;;;15.80;99.90;;;;;;4958832;28;20065;-47
2023/07/03 04:03:02;;;;;;;9.15;1.98;;;15.80;99.90;;;;;;4959048;28;20086;-50
2023/07/03 04:05:28;;;;;;;9.57;2.10;;;15.80;99.90;;;;;;4959019;28;20450;-51
2023/07/03 04:07:53;;;;;;;7.90;1.90;;;15.80;99.90;;;;;;4959050;28;20046;-49
2023/07/03 04:10:19;;;;;;;10.63;2.17;;;15.70;99.90;;;;;;4958657;28;20118;-47
2023/07/03 04:12:45;;;;;;;11.13;2.10;;;15.70;99.90;;;;;;4958811;28;20039;-49
2023/07/03 04:15:10;;;;;;;10.48;2.05;;;15.70;99.90;;;;;;4958935;28;20047;-48
2023/07/03 04:17:36;;;;;;;9.00;1.98;;;15.70;99.90;;;;;;4959124;28;20074;-47
2023/07/03 04:20:07;;;;;;;9.38;2.00;;;15.70;99.90;;;;;;4958674;28;20039;-50
2023/07/03 04:22:33;;;;;;;9.43;2.42;;;15.80;99.90;;;;;;4959162;28;20038;-50
2023/07/03 04:24:59;;;;;;;9.40;1.67;;;15.80;99.90;;;;;;4959011;28;20410;-50
2023/07/03 04:27:25;;;;;;;9.68;2.40;;;15.80;99.90;;;;;;4958885;28;20043;-50
2023/07/03 04:29:51;;;;;;;9.20;2.03;;;15.80;99.90;;;;;;4958241;28;20106;-50
2023/07/03 04:32:17;;;;;;;12.25;1.88;;;15.80;99.90;;;;;;4958484;28;20090;-52
2023/07/03 04:34:42;;;;;;;10.35;2.40;;;15.80;99.90;;;;;;4958721;28;20075;-52
2023/07/03 04:37:08;;;;;;;7.20;1.75;;;15.90;99.90;;;;;;4959012;28;20031;-49
2023/07/03 04:39:34;;;;;;;7.32;2.00;;;15.90;99.90;;;;;;4958879;28;20111;-52
2023/07/03 04:42:00;;;;;;;9.38;2.50;;;15.80;99.90;;;;;;4958386;28;20122;-50
2023/07/03 04:44:29;;;;;;;9.50;2.20;;;15.80;99.90;;;;;;4958560;28;20054;-47
2023/07/03 04:46:58;;;;;;;9.13;1.85;;;15.80;99.90;;;;;;4958908;28;20050;-49
2023/07/03 04:49:26;;;;;;;9.38;2.15;;;15.80;99.90;;;;;;4958850;28;20076;-47
2023/07/03 04:51:52;;;;;;;8.70;2.10;;;15.80;99.90;;;;;;4958572;28;20051;-50
2023/07/03 04:54:19;;;;;;;9.77;1.88;;;15.80;99.90;;;;;;4958645;28;20471;-49
2023/07/03 04:56:46;;;;;;;11.55;2.42;;;15.80;99.90;;;;;;4941318;28;20094;-49
2023/07/03 04:59:12;;;;;;;10.60;2.17;;;15.80;99.90;;;;;;4966517;28;20081;-49
2023/07/03 05:01:42;;;;;;;9.07;2.00;;;15.90;99.90;;;;;;4975026;28;20184;-47
2023/07/03 05:04:11;;;;;;;8.85;2.05;;;15.90;99.90;;;;;;4959087;28;20478;-51
2023/07/03 05:06:38;;;;;;;11.30;1.90;;;15.90;99.90;;;;;;4941335;28;20039;-49
2023/07/03 05:09:04;;;;;;;7.90;1.90;;;15.90;99.90;;;;;;4956980;28;20122;-48
2023/07/03 05:11:32;;;;;;;12.27;2.25;;;15.90;99.90;;;;;;4955242;28;20526;-48
2023/07/03 05:13:57;;;;;;;8.68;1.95;;;15.90;99.90;;;;;;4955324;28;20043;-49
2023/07/03 05:16:23;;;;;;;11.40;2.50;;;16.00;99.90;;;;;;4955496;28;20047;-50
2023/07/03 05:18:49;;;;;;;8.43;1.98;;;16.10;99.90;;;;;;4955493;28;20100;-50
2023/07/03 05:21:15;;;;;;;8.43;1.90;;;16.10;99.90;;;;;;4955345;28;20071;-49
2023/07/03 05:23:41;;;;;;;10.73;2.10;;;16.20;99.90;;;;;;4955483;28;20047;-51
2023/07/03 05:26:06;;;;;;;13.18;1.98;;;16.30;99.90;;;;;;4954398;28;20035;-49
2023/07/03 05:28:33;;;;;;;11.05;2.20;;;16.30;99.90;;;;;;4954557;28;20224;-48
2023/07/03 05:30:59;;;;;;;13.88;2.15;;;16.30;99.90;;;;;;4954682;28;20466;-51
2023/07/03 05:33:26;;;;;;;10.98;2.58;;;16.30;99.90;;;;;;4954515;28;20051;-46
2023/07/03 05:35:52;;;;;;;10.90;2.22;;;16.20;99.90;;;;;;4954842;28;20197;-47
2023/07/03 05:38:18;;;;;;;12.80;2.17;;;16.20;99.90;;;;;;4954978;28;20110;-49
2023/07/03 05:40:45;;;;;;;10.80;2.20;;;16.10;99.90;;;;;;4955168;28;20039;-51
2023/07/03 05:43:11;;;;;;;11.50;2.42;;;16.10;99.90;;;;;;4955083;28;20087;-51
2023/07/03 05:45:37;;;;;;;12.55;2.28;;;16.10;99.90;;;;;;4955137;28;20043;-48
2023/07/03 05:48:03;;;;;;;9.85;2.28;;;16.10;99.90;;;;;;4937911;28;20395;-48
2023/07/03 05:50:29;;;;;;;10.00;1.80;;;16.20;99.90;;;;;;4955083;28;20525;-50
2023/07/03 05:52:54;;;;;;;9.13;2.33;;;16.30;99.90;;;;;;4954912;28;20035;-48
2023/07/03 05:55:20;;;;;;;10.65;2.30;;;16.30;99.90;;;;;;4954960;28;20054;-50
2023/07/03 05:57:46;;;;;;;10.23;2.30;;;16.30;99.90;;;;;;4954578;28;20083;-51
2023/07/03 06:00:15;;;;;;;8.82;2.22;;;16.40;99.90;;;;;;4954245;28;20059;-51
2023/07/03 06:02:42;;;;;;;9.80;1.95;;;16.50;99.90;;;;;;4954403;28;20558;-47
2023/07/03 06:05:09;;;;;;;10.20;1.55;;;16.50;99.90;;;;;;4948930;28;20053;-48
2023/07/03 06:07:35;;;;;;;6.72;2.00;;;16.60;99.90;;;;;;4952911;28;20055;-50
2023/07/03 06:10:02;;;;;;;11.95;1.92;;;16.70;99.90;;;;;;4954320;28;20490;-52
2023/07/03 06:12:29;;;;;;;9.23;2.22;;;16.70;99.90;;;;;;4951331;28;20478;-50
2023/07/03 06:15:00;;;;;;;10.15;1.90;;;16.90;99.90;;;;;;4946107;28;20071;-51
2023/07/03 06:17:27;;;;;;;13.38;2.47;;;16.90;99.90;;;;;;4945091;28;20094;-52
2023/07/03 06:19:54;;;;;;;9.95;2.25;;;17.00;99.90;;;;;;4945954;28;20035;-50
2023/07/03 06:22:20;;;;;;;11.98;2.15;;;17.00;99.90;;;;;;4945476;28;20046;-47
2023/07/03 06:24:46;;;;;;;11.63;2.40;;;17.00;99.90;;;;;;4928586;28;20035;-50
2023/07/03 06:27:12;;;;;;;11.43;2.05;;;17.00;99.90;;;;;;4945156;28;20502;-48
2023/07/03 06:29:39;;;;;;;10.35;1.90;;;17.00;99.90;;;;;;4944739;28;20043;-49
2023/07/03 06:32:05;;;;;;;9.60;2.20;;;17.00;99.90;;;;;;4944483;28;20555;-48
2023/07/03 06:34:31;;;;;;;10.95;2.03;;;17.00;99.90;;;;;;4944597;28;20035;-51
2023/07/03 06:36:57;;;;;;;12.43;2.92;;;17.10;99.90;;;;;;4945264;28;20059;-51
2023/07/03 06:39:23;;;;;;;9.57;2.40;;;17.10;99.90;;;;;;4945378;28;20040;-52
2023/07/03 06:41:48;;;;;;;11.60;2.10;;;17.20;99.90;;;;;;4928033;28;20055;-49
2023/07/03 06:44:16;;;;;;;12.90;2.80;;;17.20;99.90;;;;;;4945415;28;20032;-50
2023/07/03 06:46:43;;;;;;;11.48;2.67;;;17.20;99.90;;;;;;4943924;28;20035;-48
2023/07/03 06:49:10;;;;;;;12.70;2.38;;;17.20;99.90;;;;;;4945182;28;20032;-51
2023/07/03 06:51:36;;;;;;;8.95;2.20;;;17.20;99.90;;;;;;4927946;28;20624;-49
2023/07/03 06:54:02;;;;;;;14.02;2.85;;;17.10;99.90;;;;;;4945045;28;20395;-48
2023/07/03 06:56:28;;;;;;;11.73;2.30;;;17.00;99.90;;;;;;4944420;28;20456;-51
2023/07/03 06:58:54;;;;;;;8.43;2.10;;;17.00;99.90;;;;;;4943825;28;22787;-53
2023/07/03 07:01:22;;;;;;;10.55;2.20;;;16.90;99.90;;;;;;4944051;28;20190;-51
2023/07/03 07:03:48;;;;;;;11.10;2.28;;;16.80;99.90;;;;;;4927371;28;20035;-52
2023/07/03 07:06:23;;;;;;;12.50;2.10;;;16.90;99.90;;;;;;4926653;28;20046;-50
2023/07/03 07:08:49;;;;;;;9.25;2.05;;;17.00;99.90;;;;;;4942548;28;20037;-50
2023/07/03 07:11:22;;;;;;;13.73;2.08;;;17.10;99.90;;;;;;4943956;28;20026;-49
2023/07/03 07:13:49;;;;;;;6.45;1.73;;;17.20;99.90;;;;;;4925358;28;20134;-50
2023/07/03 07:16:26;;;;;;;7.70;1.42;;;17.20;99.90;;;;;;4944432;28;20034;-50
2023/07/03 07:18:57;;;;;;;7.03;1.45;;;17.30;99.90;;;;;;4924616;28;20035;-52
2023/07/03 07:21:23;;;;;;;10.40;1.65;;;17.40;99.90;;;;;;4942507;28;20126;-51
2023/07/03 07:23:51;;;;;;;6.90;1.50;;;17.50;99.90;;;;;;4924404;28;20052;-53
2023/07/03 07:26:18;;;;;;;7.15;1.40;;;17.50;99.90;;;;;;4943549;28;20063;-53
2023/07/03 07:28:43;;;;;;;9.18;1.45;;;17.50;99.90;;;;;;4942629;28;20174;-49
2023/07/03 07:31:09;;;;;;;7.30;1.58;;;17.50;99.90;;;;;;4943355;28;20201;-50
2023/07/03 07:33:35;;;;;;;9.88;1.63;;;17.50;99.90;;;;;;4925223;28;20059;-52
2023/07/03 07:36:00;;;;;;;5.68;1.20;;;17.60;99.90;;;;;;4942771;28;20130;-51
2023/07/03 07:38:26;;;;;;;6.85;1.00;;;17.60;99.90;;;;;;4942673;28;20031;-50
2023/07/03 07:41:02;;;;;;;7.70;1.20;;;17.80;99.90;;;;;;4943396;28;20071;-51
2023/07/03 07:43:28;;;;;;;6.38;1.38;;;17.90;99.90;;;;;;4942372;28;20046;-48
2023/07/03 07:45:54;;;;;;;5.03;1.20;;;18.00;99.90;;;;;;4942086;28;20043;-52
2023/07/03 07:48:19;;;;;;;4.70;1.00;;;17.90;99.90;;;;;;4943353;28;20122;-49
2023/07/03 07:50:45;;;;;;;6.97;1.30;;;17.90;99.90;;;;;;4942979;28;20035;-50
2023/07/03 07:53:11;;;;;;;6.32;1.50;;;17.90;99.90;;;;;;4943232;28;20047;-51
2023/07/03 07:55:37;;;;;;;7.72;1.38;;;17.90;99.90;;;;;;4944862;28;20066;-51
2023/07/03 07:58:03;;;;;;;7.32;1.33;;;17.90;99.90;;;;;;4944609;28;20046;-50
2023/07/03 08:00:28;;;;;;;5.43;1.50;;;18.00;99.90;;;;;;4944553;28;20060;-50
2023/07/03 08:02:54;;;;;;;7.50;1.33;;;18.00;99.90;;;;;;4944145;28;20123;-50
2023/07/03 08:05:20;;;;;;;6.30;1.33;;;18.10;99.90;;;;;;4944268;28;20118;-49
2023/07/03 08:07:46;;;;;;;6.82;1.02;;;18.20;99.90;;;;;;4944270;28;20142;-52
2023/07/03 08:10:12;;;;;;;6.18;1.10;;;18.20;99.90;;;;;;4943195;28;20138;-51
2023/07/03 08:12:38;;;;;;;8.40;1.55;;;18.10;99.90;;;;;;4943416;28;20047;-50
2023/07/03 08:15:05;;;;;;;6.13;1.77;;;18.00;99.90;;;;;;4943389;28;20368;-50
2023/07/03 08:17:31;;;;;;;6.47;1.20;;;18.10;99.90;;;;;;4943830;28;20159;-51
2023/07/03 08:19:57;;;;;;;9.65;1.02;;;18.30;99.90;;;;;;4941691;28;20126;-53
2023/07/03 08:22:23;;;;;;;6.32;1.30;;;18.50;99.90;;;;;;4942854;28;20046;-49
2023/07/03 08:24:49;;;;;;;8.52;1.52;;;18.50;99.90;;;;;;4943503;28;20043;-49
2023/07/03 08:27:15;;;;;;;7.28;1.30;;;18.40;99.90;;;;;;4943210;28;20031;-49
2023/07/03 08:29:40;;;;;;;7.95;1.63;;;18.40;99.90;;;;;;4943150;28;20035;-51
2023/07/03 08:32:10;;;;;;;10.50;1.95;;;18.40;99.90;;;;;;4942334;28;20051;-51
2023/07/03 08:34:36;;;;;;;5.35;1.45;;;18.30;99.90;;;;;;4941685;28;20078;-49
2023/07/03 08:37:02;;;;;;;5.93;1.52;;;18.30;99.90;;;;;;4942735;28;20046;-52
2023/07/03 08:39:28;;;;;;;10.88;2.38;;;18.30;99.90;;;;;;4942875;28;20403;-50
2023/07/03 08:42:02;;;;;;;9.05;1.60;;;18.20;99.90;;;;;;4943140;28;20041;-52
2023/07/03 08:44:28;;;;;;;11.50;1.80;;;18.20;99.90;;;;;;4944248;28;20487;-50
2023/07/03 08:46:58;;;;;;;8.73;1.65;;;18.10;99.90;;;;;;4946777;28;20071;-52
2023/07/03 08:49:24;;;;;;;9.07;1.90;;;18.10;99.90;;;;;;4946473;28;20027;-51
2023/07/03 08:51:52;;;;;;;9.70;2.13;;;18.10;99.90;;;;;;4945805;28;20407;-53
2023/07/03 08:54:22;;;;;;;7.95;1.70;;;18.10;99.90;;;;;;4945716;28;20038;-50
2023/07/03 08:56:49;;;;;;;9.48;2.10;;;18.00;99.90;;;;;;4945647;28;20118;-52
2023/07/03 08:59:15;;;;;;;11.68;1.90;;;18.00;99.90;;;;;;4945245;28;20027;-52
2023/07/03 09:01:52;;;;;;;8.13;1.63;;;18.00;99.90;;;;;;4946588;28;20059;-53
2023/07/03 09:04:32;;;;;;;7.22;1.85;;;18.00;99.90;;;;;;4946013;28;20050;-51
2023/07/03 09:07:06;;;;;;;9.00;1.80;;;18.10;99.90;;;;;;4945633;28;20122;-52
2023/07/03 09:09:34;;;;;;;;;;;18.30;99.90;;;;;;4946528;28;20059;-48
2023/07/03 09:12:25;;;;;;;6.55;1.63;;;18.30;99.90;;;;;;4946531;28;20298;-50
2023/07/03 09:14:57;;;;;;;10.63;1.80;;;18.40;99.90;;;;;;4945907;28;20681;-47
2023/07/03 09:17:25;;;;;;;5.88;1.52;;;18.50;99.90;;;;;;4944206;28;20147;-52
2023/07/03 09:19:52;;;;;;;7.72;1.52;;;18.50;99.90;;;;;;4946569;28;20031;-50
2023/07/03 09:22:34;;;;;;;7.63;1.25;;;18.60;99.90;;;;;;4929294;28;20054;-52
2023/07/03 09:25:04;;;;;;;5.22;1.00;;;18.80;99.90;;;;;;4947376;28;20043;-49
2023/07/03 09:27:30;;;;;;;7.18;1.30;;;19.00;99.90;;;;;;4946747;28;20491;-49
2023/07/03 09:30:00;;;;;;;5.30;1.10;;;19.10;99.90;;;;;;4946136;28;20107;-53
2023/07/03 09:32:31;;;;;;;8.25;1.30;;;19.20;99.90;;;;;;4946487;28;20043;-48
2023/07/03 09:35:11;;;;;;;5.10;1.13;;;19.30;99.90;;;;;;4949205;28;20043;-51
2023/07/03 09:37:45;;;;;;;6.22;1.60;;;19.40;99.90;;;;;;4952350;28;20047;-51
2023/07/03 09:40:22;;;;;;;6.03;1.30;;;19.60;99.90;;;;;;4949486;28;20033;-50
2023/07/03 09:42:48;;;;;;;5.05;1.40;;;19.70;99.90;;;;;;4955964;28;20140;-52
2023/07/03 09:45:20;;;;;;;6.22;1.00;;;19.90;99.70;;;;;;4933581;28;20398;-50
2023/07/03 09:47:53;;;;;;;6.75;1.20;;;20.00;99.40;;;;;;4941963;28;20039;-49
2023/07/03 09:50:33;;;;;;;8.05;1.15;;;20.00;98.70;;;;;;4940411;28;20133;-50
2023/07/03 09:53:00;;;;;;;8.27;1.33;;;19.90;98.70;;;;;;4938439;28;20463;-49
2023/07/03 09:55:26;;;;;;;10.13;1.48;;;19.90;98.90;;;;;;4951377;28;20156;-47
2023/07/03 09:57:52;;;;;;;6.65;1.27;;;19.90;99.10;;;;;;4951173;28;20058;-47
2023/07/03 10:00:21;;;;;;;8.18;1.42;;;19.80;99.10;;;;;;4952505;28;20066;-52
2023/07/03 10:02:55;;;;;;;8.95;1.52;;;19.80;99.30;;;;;;4951817;28;20055;-50
2023/07/03 10:05:32;;;;;;;5.13;1.08;;;19.80;98.80;;;;;;4954200;28;20043;-51
2023/07/03 10:08:01;;;;;;;7.43;1.45;;;19.60;99.00;;;;;;4951553;28;20360;-50
2023/07/03 10:10:28;;;;;;;5.88;1.20;;;19.50;98.80;;;;;;4955471;28;20513;-48
2023/07/03 10:13:26;;;;;;;7.13;1.55;;;19.30;98.80;;;;;;4956020;28;20097;-51
2023/07/03 10:15:54;;;;;;;5.93;1.40;;;19.30;99.50;;;;;;4939249;28;20066;-52
2023/07/03 10:18:35;;;;;;;5.10;1.10;;;19.50;99.40;;;;;;4954032;28;22983;-51
2023/07/03 10:21:04;;;;;;;7.20;1.63;;;19.70;99.10;;;;;;4949558;28;20067;-51
2023/07/03 10:23:35;;;;;;;6.22;1.23;;;19.60;98.80;;;;;;4937338;28;20042;-49
2023/07/03 10:26:17;;;;;;;6.10;1.25;;;19.50;99.30;;;;;;4947929;28;20107;-52
2023/07/03 10:28:52;;;;;;;6.60;1.70;;;19.30;99.90;;;;;;4953934;28;20505;-51
2023/07/03 10:31:24;;;;;;;5.13;1.20;;;19.30;99.30;;;;;;4953539;28;20121;-50
2023/07/03 10:34:01;;;;;;;8.35;1.15;;;19.30;99.30;;;;;;4954792;28;20062;-49
2023/07/03 10:36:29;;;;;;;6.90;1.20;;;19.50;99.10;;;;;;4947137;28;20039;-51
2023/07/03 10:39:01;;;;;;;11.85;2.00;;;19.60;99.10;;;;;;4945253;28;20118;-50
2023/07/03 10:41:35;;;;;;;8.70;1.50;;;19.90;99.50;;;;;;4944720;28;20035;-49
2023/07/03 10:44:16;;;;;;;7.65;1.08;;;19.90;99.20;;;;;;4944976;28;20050;-48
2023/07/03 10:46:51;;;;;;;9.75;1.60;;;19.90;98.90;;;;;;4941574;28;20050;-50
2023/07/03 10:49:36;;;;;;;5.50;1.13;;;19.70;99.00;;;;;;4939119;28;20039;-51
2023/07/03 10:52:27;;;;;;;7.25;1.75;;;19.60;99.40;;;;;;4940187;28;20031;-51
2023/07/03 10:55:02;;;;;;;5.95;1.20;;;19.60;99.80;;;;;;4941472;28;20419;-47
2023/07/03 10:57:50;;;;;;;5.07;1.10;;;19.50;99.90;;;;;;4940580;28;20039;-48
2023/07/03 11:00:31;;;;;;;10.50;1.70;;;19.50;99.60;;;;;;4941707;28;20038;-52
2023/07/03 11:03:26;;;;;;;14.50;1.70;;;19.60;99.80;;;;;;4940807;29;20376;-50
2023/07/03 11:06:08;;;;;;;9.90;1.60;;;19.60;99.40;;;;;;4940084;29;20074;-49
2023/07/03 11:08:58;;;;;;;12.80;1.55;;;19.50;99.40;;;;;;4938009;28;20042;-50
2023/07/03 11:11:44;;;;;;;9.50;1.80;;;19.40;99.60;;;;;;4939142;29;20043;-51
2023/07/03 11:14:36;;;;;;;8.57;1.45;;;19.40;99.90;;;;;;4922560;29;20098;-52
2023/07/03 11:17:11;;;;;;;12.50;1.55;;;19.50;99.90;;;;;;4940638;29;20042;-49
2023/07/03 11:19:51;;;;;;;6.82;1.52;;;19.60;99.90;;;;;;4938652;29;20045;-48
2023/07/03 11:22:27;;;;;;;6.38;1.15;;;19.70;99.90;;;;;;4939259;29;20039;-52
2023/07/03 11:25:00;;;;;;;6.28;1.10;;;20.00;99.90;;;;;;4922942;28;20081;-50
2023/07/03 11:27:35;;;;;;;8.68;1.42;;;20.30;99.90;;;;;;4939344;29;20079;-50
2023/07/03 11:30:02;;;;;;;6.20;1.50;;;20.50;99.60;;;;;;4939537;29;20300;-46
2023/07/03 11:32:33;;;;;;;7.07;1.23;;;20.40;99.50;;;;;;4943007;29;20051;-47
2023/07/03 11:35:00;;;;;;;7.15;1.40;;;20.40;99.30;;;;;;4943481;29;20042;-48
2023/07/03 11:37:34;;;;;;;5.22;1.10;;;20.40;98.70;;;;;;4944695;28;20047;-50
2023/07/03 11:40:23;;;;;;;8.52;2.05;;;20.30;98.70;;;;;;4933612;29;20046;-48
2023/07/03 11:43:08;;;;;;;4.95;1.20;;;20.00;98.60;;;;;;4950672;29;20035;-49
2023/07/03 11:45:35;;;;;;;5.55;1.10;;;19.80;98.60;;;;;;4934788;29;20058;-48
2023/07/03 11:48:01;;;;;;;5.22;1.13;;;19.70;98.90;;;;;;4952158;29;20050;-49
2023/07/03 11:50:33;;;;;;;5.32;1.40;;;19.70;99.40;;;;;;4918729;29;20039;-50
2023/07/03 11:52:58;;;;;;;8.48;1.70;;;19.60;98.70;;;;;;4952111;29;20361;-50
2023/07/03 11:55:36;;;;;;;7.85;1.75;;;19.60;99.00;;;;;;4952168;29;20109;-47
2023/07/03 11:58:03;;;;;;;7.13;1.52;;;19.80;99.30;;;;;;4934648;29;20043;-49
2023/07/03 12:00:30;;;;;;;6.93;1.40;;;20.10;99.60;;;;;;4951874;28;20054;-51
2023/07/03 12:02:59;;;;;;;10.02;1.45;;;20.40;99.00;;;;;;4952315;28;20142;-50
2023/07/03 12:05:45;;;;;;;7.13;1.63;;;20.50;97.90;;;;;;4935386;28;20046;-49
2023/07/03 12:08:17;;;;;;;10.23;1.40;;;20.70;97.10;;;;;;4935272;28;20054;-49
2023/07/03 12:10:57;;;;;;;6.55;1.40;;;20.90;97.10;;;;;;4952880;28;20503;-48
2023/07/03 12:13:27;;;;;;;6.78;1.10;;;20.90;96.90;;;;;;4952635;28;20074;-49
2023/07/03 12:15:58;;;;;;;7.97;1.35;;;20.70;96.50;;;;;;4952877;28;20443;-49
2023/07/03 12:18:24;;;;;;;5.53;1.08;;;20.50;96.50;;;;;;4952633;28;20082;-47
2023/07/03 12:21:01;;;;;;;7.57;1.42;;;20.30;96.70;;;;;;4939573;28;20046;-49
2023/07/03 12:23:35;;;;;;;4.70;1.02;;;20.00;96.70;;;;;;4956277;28;20043;-49
2023/07/03 12:26:02;;;;;;;;;;;19.80;97.10;;;;;;4939759;28;20066;-51
2023/07/03 12:28:28;;;;;;;9.38;1.50;;;19.70;97.30;;;;;;4955045;28;20354;-48
2023/07/03 12:31:18;;;;;;;6.38;1.35;;;19.50;97.50;;;;;;4956180;28;20042;-49
2023/07/03 12:33:59;;;;;;;7.32;1.35;;;19.40;98.00;;;;;;4956454;28;20511;-49
2023/07/03 12:36:32;;;;;;;4.60;1.42;;;19.40;98.40;;;;;;4956341;28;20532;-50
2023/07/03 12:39:00;;;;;;;5.78;1.20;;;19.60;98.20;;;;;;4938066;28;20035;-49
2023/07/03 12:41:30;;;;;;;7.40;1.20;;;19.70;97.80;;;;;;4956110;28;20042;-49
2023/07/03 12:43:56;;;;;;;7.93;1.55;;;19.70;97.40;;;;;;4956339;28;20394;-48
2023/07/03 12:46:31;;;;;;;7.50;1.10;;;19.60;97.20;;;;;;4955806;28;20050;-51
2023/07/03 12:49:29;;;;;;;7.38;1.50;;;19.60;97.30;;;;;;4956329;28;20086;-50
2023/07/03 12:51:55;;;;;;;7.03;1.40;;;19.50;97.60;;;;;;4913008;28;20051;-50
2023/07/03 12:54:22;;;;;;;6.22;1.08;;;19.40;97.90;;;;;;4956442;28;20046;-50